Terminal Aerodrome Forecast
Issued by NWS

Home | Current Version | Previous Version | Text Only | Print | Product List | Glossary On
Versions: 1 2 3 4 5 6 7 8 9 10 11 12 13 14 15 16 17 18 19 20 21 22 23
000
FTUS42 KKEY 261501 AAA
TAFMTH
TAF AMD
KMTH 261501Z 2615/2712 03009G16KT P6SM FEW020
     FM262300 06007KT P6SM FEW028
     FM270700 09008KT P6SM FEW023 SCT035=

USA.gov is the U.S. government's official web portal to all federal, state and local government web resources and services.